createdAt,value
2019-03-26T00:04:05.815Z,11.07
2019-03-26T00:06:35.840Z,3.10
2019-03-26T00:12:06.435Z,4.60
2019-03-26T00:14:53.709Z,3.43
2019-03-26T00:17:21.463Z,6.63
2019-03-26T00:19:49.670Z,6.60
2019-03-26T00:22:17.407Z,2.80
2019-03-26T00:25:04.716Z,5.30
2019-03-26T00:27:44.172Z,2.03
2019-03-26T00:30:52.452Z,5.00
2019-03-26T00:33:20.057Z,4.30
2019-03-26T00:35:47.653Z,9.33
2019-03-26T00:41:15.671Z,7.73
2019-03-26T00:44:02.943Z,4.90
2019-03-26T00:46:30.663Z,3.07
2019-03-26T00:48:58.371Z,8.63
2019-03-26T00:51:26.107Z,3.77
2019-03-26T00:54:34.381Z,7.47
2019-03-26T00:57:02.130Z,5.73
2019-03-26T00:59:29.826Z,4.07
2019-03-26T01:04:51.497Z,8.93
2019-03-26T01:07:19.252Z,3.60
2019-03-26T01:09:47.625Z,7.93
2019-03-26T01:14:55.608Z,4.00
2019-03-26T01:17:23.305Z,5.30
2019-03-26T01:19:51.035Z,2.90
2019-03-26T01:22:38.003Z,8.83
2019-03-26T01:28:26.516Z,4.77
2019-03-26T01:31:19.811Z,7.53
2019-03-26T01:34:06.777Z,5.73
2019-03-26T01:36:54.048Z,6.27
2019-03-26T01:42:21.584Z,6.10
2019-03-26T01:44:49.293Z,3.57
2019-03-26T01:52:58.575Z,3.97
2019-03-26T01:55:26.653Z,7.93
2019-03-26T01:58:13.629Z,12.33
2019-03-26T02:01:21.942Z,10.43
2019-03-26T02:03:49.655Z,6.90
2019-03-26T02:06:17.393Z,4.70
2019-03-26T02:09:04.335Z,4.77
2019-03-26T02:11:32.064Z,7.20
2019-03-26T02:17:01.271Z,4.23
2019-03-26T02:19:28.935Z,6.10
2019-03-26T02:24:37.269Z,6.67
2019-03-26T02:27:04.993Z,8.43
2019-03-26T02:29:51.946Z,7.67
2019-03-26T02:38:01.586Z,8.43
2019-03-26T02:40:43.320Z,8.93
2019-03-26T02:43:30.555Z,4.50
2019-03-26T02:45:58.298Z,6.10
2019-03-26T02:48:25.985Z,5.73
2019-03-26T02:51:05.270Z,3.03
2019-03-26T02:53:32.951Z,10.77
2019-03-26T02:56:01.097Z,5.80
2019-03-26T03:01:43.792Z,10.33
2019-03-26T03:04:23.121Z,7.50
2019-03-26T03:07:10.039Z,5.20
2019-03-26T03:09:49.429Z,7.30
2019-03-26T03:12:17.151Z,11.50
2019-03-26T03:14:56.671Z,4.00
2019-03-26T03:17:24.389Z,5.33
2019-03-26T03:19:52.120Z,7.60
2019-03-26T03:22:19.850Z,5.97
2019-03-26T03:25:28.119Z,6.90
2019-03-26T03:28:15.439Z,10.63
2019-03-26T03:31:23.760Z,5.67
2019-03-26T03:33:58.681Z,9.23
2019-03-26T03:36:45.650Z,6.63
2019-03-26T03:39:13.345Z,16.73
2019-03-26T03:41:41.064Z,7.13
2019-03-26T03:44:20.643Z,8.30
2019-03-26T03:50:41.332Z,6.40
2019-03-26T04:01:49.889Z,6.57
2019-03-26T04:04:17.845Z,4.90
2019-03-26T04:06:45.633Z,10.47
2019-03-26T04:09:13.351Z,11.80
2019-03-26T04:11:41.203Z,7.23
2019-03-26T04:14:08.885Z,14.63
2019-03-26T04:16:36.620Z,14.13
2019-03-26T04:19:04.308Z,10.10
2019-03-26T04:21:32.042Z,5.23
2019-03-26T04:23:59.756Z,6.10
2019-03-26T04:30:20.829Z,7.33
2019-03-26T04:32:48.615Z,9.00
2019-03-26T04:35:16.334Z,21.00
2019-03-26T04:38:03.632Z,7.67
2019-03-26T04:40:31.335Z,6.37
2019-03-26T04:43:39.658Z,8.23
2019-03-26T04:46:07.346Z,7.73
2019-03-26T04:48:36.859Z,8.80
2019-03-26T04:51:06.411Z,12.47
2019-03-26T04:53:34.410Z,12.87
2019-03-26T04:56:02.168Z,8.73
2019-03-26T04:58:29.932Z,5.63
2019-03-26T05:00:57.700Z,5.50
2019-03-26T05:03:25.435Z,6.50
2019-03-26T05:05:53.292Z,6.40
2019-03-26T05:08:21.076Z,11.73
2019-03-26T05:10:49.299Z,9.27
2019-03-26T05:13:17.279Z,9.80
2019-03-26T05:15:45.115Z,5.93
2019-03-26T05:18:13.128Z,12.37
2019-03-26T05:20:40.831Z,10.77
2019-03-26T05:23:08.543Z,7.30
2019-03-26T05:25:36.613Z,10.93
2019-03-26T05:28:04.467Z,8.70
2019-03-26T05:30:33.286Z,8.07
2019-03-26T05:33:01.107Z,10.93
2019-03-26T05:35:29.406Z,13.90
2019-03-26T05:37:57.084Z,10.10
2019-03-26T05:40:25.139Z,9.87
2019-03-26T05:42:52.882Z,9.30
2019-03-26T05:45:20.575Z,11.17
2019-03-26T05:47:48.726Z,14.70
2019-03-26T05:50:16.480Z,18.03
2019-03-26T05:52:44.081Z,10.33
2019-03-26T05:55:12.160Z,13.33
2019-03-26T05:57:39.790Z,11.10
2019-03-26T06:00:12.307Z,18.40
2019-03-26T06:02:40.373Z,17.23
2019-03-26T06:05:08.803Z,17.43
2019-03-26T06:07:36.924Z,14.20
2019-03-26T06:10:05.974Z,12.63
2019-03-26T06:12:33.741Z,15.50
2019-03-26T06:15:01.487Z,15.70
2019-03-26T06:17:30.152Z,11.43
2019-03-26T06:19:57.892Z,32.33
2019-03-26T06:22:25.754Z,12.10
2019-03-26T06:24:53.536Z,14.43
2019-03-26T06:27:21.294Z,18.73
2019-03-26T06:29:49.027Z,16.13
2019-03-26T06:32:17.254Z,14.80
2019-03-26T06:34:45.032Z,12.40
2019-03-26T06:37:17.920Z,17.20
2019-03-26T06:39:42.292Z,16.67
2019-03-26T06:42:10.023Z,13.00
2019-03-26T06:44:37.668Z,12.63
2019-03-26T06:47:05.434Z,10.90
2019-03-26T06:49:33.163Z,8.20
2019-03-26T06:52:00.876Z,10.13
2019-03-26T06:54:28.639Z,25.87
2019-03-26T06:56:56.375Z,13.00
2019-03-26T06:59:24.119Z,15.10
2019-03-26T07:01:52.258Z,10.37
2019-03-26T07:04:19.981Z,17.80
2019-03-26T07:06:47.688Z,10.87
2019-03-26T07:09:15.463Z,15.33
2019-03-26T07:11:43.507Z,16.20
2019-03-26T07:14:11.231Z,18.57
2019-03-26T10:49:34.031Z,15.63
2019-03-26T10:52:01.763Z,21.10
2019-03-26T10:54:29.594Z,18.40
2019-03-26T10:56:57.371Z,16.53
2019-03-26T10:59:25.567Z,16.70
2019-03-26T11:01:53.935Z,15.47
2019-03-26T11:04:22.265Z,16.30
2019-03-26T11:06:50.549Z,21.77
2019-03-26T11:09:26.729Z,17.77
2019-03-26T11:11:49.898Z,18.97
2019-03-26T11:14:18.963Z,12.77
2019-03-26T11:16:48.674Z,18.20
2019-03-26T11:19:17.361Z,19.23
2019-03-26T11:21:47.468Z,17.13
2019-03-26T11:24:15.648Z,15.77
2019-03-26T11:26:43.388Z,20.33
2019-03-26T11:29:11.123Z,13.17
2019-03-26T11:31:38.823Z,13.80
2019-03-26T11:34:06.610Z,20.27
2019-03-26T11:36:34.308Z,22.10
2019-03-26T11:39:02.071Z,14.87
2019-03-26T11:41:33.485Z,17.33
2019-03-26T11:44:04.461Z,14.43
2019-03-26T11:46:30.913Z,16.43
2019-03-26T11:48:58.636Z,23.03
2019-03-26T11:51:26.356Z,18.20
2019-03-26T11:53:54.112Z,19.80
2019-03-26T11:56:21.887Z,15.33
2019-03-26T11:58:49.604Z,26.50
2019-03-26T12:01:17.336Z,22.10
2019-03-26T12:03:46.414Z,17.20
2019-03-26T12:06:14.675Z,16.30
2019-03-26T12:08:43.315Z,19.87
2019-03-26T12:11:11.907Z,22.13
2019-03-26T12:13:46.153Z,17.77
2019-03-26T12:16:16.195Z,16.53
2019-03-26T12:18:44.868Z,21.00
2019-03-26T12:21:12.611Z,14.87
2019-03-26T12:23:40.240Z,14.90
2019-03-26T12:26:08.276Z,20.27
2019-03-26T12:28:36.387Z,17.43
2019-03-26T12:31:04.124Z,18.40
2019-03-26T12:33:35.183Z,18.30
2019-03-26T12:36:03.443Z,18.53
2019-03-26T12:38:31.179Z,14.40
2019-03-26T12:40:58.944Z,21.00
2019-03-26T12:43:26.760Z,17.43
2019-03-26T12:45:54.475Z,17.53
2019-03-26T12:48:22.180Z,14.50
2019-03-26T12:50:50.194Z,14.67
2019-03-26T12:53:17.893Z,12.50
2019-03-26T12:55:45.746Z,16.83
2019-03-26T12:58:13.821Z,17.60
2019-03-26T13:00:41.572Z,9.67
2019-03-26T13:03:09.462Z,10.10
2019-03-26T13:05:37.180Z,23.20
2019-03-26T13:08:04.903Z,23.33
2019-03-26T13:10:33.155Z,26.10
2019-03-26T13:13:00.900Z,17.00
2019-03-26T13:15:28.649Z,12.33
2019-03-26T13:17:56.275Z,15.40
2019-03-26T13:20:24.120Z,15.37
2019-03-26T13:22:51.903Z,11.60
2019-03-26T13:25:19.653Z,22.37
2019-03-26T13:27:47.480Z,12.37
2019-03-26T13:30:16.366Z,28.67
2019-03-26T13:32:44.532Z,8.57
2019-03-26T13:35:12.578Z,8.73
2019-03-26T13:37:40.426Z,6.87
2019-03-26T13:40:08.923Z,9.60
2019-03-26T13:42:36.788Z,22.93
2019-03-26T13:45:05.170Z,7.83
2019-03-26T13:47:32.946Z,12.50
2019-03-26T13:50:00.702Z,16.60
2019-03-26T13:52:28.348Z,14.57
2019-03-26T13:54:56.104Z,6.63
2019-03-26T13:57:23.898Z,7.27
2019-03-26T13:59:51.617Z,15.30
2019-03-26T14:02:19.425Z,8.27
2019-03-26T14:04:47.561Z,13.13
2019-03-26T14:07:15.351Z,7.83
2019-03-26T14:09:43.479Z,14.10
2019-03-26T14:12:11.607Z,5.27
2019-03-26T14:14:40.117Z,9.63
2019-03-26T14:17:07.871Z,6.00
2019-03-26T14:19:35.667Z,10.40
2019-03-26T14:22:03.523Z,11.00
2019-03-26T14:24:31.286Z,8.40
2019-03-26T14:26:59.157Z,10.43
2019-03-26T14:29:26.875Z,6.33
2019-03-26T14:31:54.803Z,10.30
2019-03-26T14:34:22.525Z,8.47
2019-03-26T14:36:50.224Z,5.27
2019-03-26T14:39:18.231Z,10.90
2019-03-26T14:41:46.026Z,13.47
2019-03-26T14:44:13.770Z,4.63
2019-03-26T14:46:41.864Z,6.53
2019-03-26T14:49:09.606Z,5.57
2019-03-26T14:51:37.313Z,8.93
2019-03-26T14:54:05.107Z,5.93
2019-03-26T14:56:32.855Z,7.40
2019-03-26T14:59:00.638Z,8.67
2019-03-26T15:01:28.440Z,10.40
2019-03-26T15:03:56.214Z,5.63
2019-03-26T15:06:24.268Z,7.30
2019-03-26T15:08:52.006Z,9.13
2019-03-26T15:11:19.785Z,14.00
2019-03-26T15:13:49.474Z,9.30
2019-03-26T15:16:17.187Z,23.03
2019-03-26T15:18:45.328Z,9.80
2019-03-26T15:21:13.237Z,13.80
2019-03-26T15:23:40.950Z,7.47
2019-03-26T15:26:08.721Z,7.87
2019-03-26T15:28:36.456Z,6.93
2019-03-26T15:31:04.174Z,6.03
2019-03-26T15:33:33.776Z,25.67
2019-03-26T15:36:01.627Z,12.43
2019-03-26T15:38:29.531Z,8.83
2019-03-26T15:40:57.390Z,13.07
2019-03-26T15:43:25.125Z,9.50
2019-03-26T15:45:52.773Z,14.10
2019-03-26T15:48:20.610Z,12.87
2019-03-26T15:50:48.351Z,12.00
2019-03-26T15:53:16.546Z,11.10
2019-03-26T15:55:44.975Z,7.73
2019-03-26T15:58:14.329Z,17.63
2019-03-26T16:00:42.589Z,14.57
2019-03-26T16:03:10.326Z,12.73
2019-03-26T16:05:38.166Z,15.07
2019-03-26T16:08:05.905Z,17.43
2019-03-26T16:10:33.676Z,10.47
2019-03-26T16:13:01.448Z,13.63
2019-03-26T16:15:29.349Z,12.67
2019-03-26T16:17:57.218Z,10.13
2019-03-26T16:20:24.947Z,16.20
2019-03-26T16:22:52.718Z,14.93
2019-03-26T16:25:20.574Z,11.03
2019-03-26T16:27:50.889Z,13.63
2019-03-26T16:30:18.679Z,12.63
2019-03-26T16:32:46.480Z,17.40
2019-03-26T16:35:14.266Z,15.67
2019-03-26T16:37:41.990Z,17.20
2019-03-26T16:40:09.864Z,15.30
2019-03-26T16:42:37.610Z,11.90
2019-03-26T16:45:05.845Z,18.47
2019-03-26T16:47:33.659Z,16.00
2019-03-26T16:50:20.480Z,14.40
2019-03-26T16:52:48.643Z,11.10
2019-03-26T16:55:16.275Z,27.23
2019-03-26T16:57:44.061Z,14.80
2019-03-26T17:03:13.100Z,10.27
2019-03-26T17:06:00.260Z,13.60
2019-03-26T17:08:28.015Z,14.17
2019-03-26T17:10:55.662Z,17.03
2019-03-26T17:13:23.392Z,18.70
2019-03-26T17:15:51.036Z,11.57
2019-03-26T17:18:18.743Z,12.23
2019-03-26T17:20:46.704Z,23.13
2019-03-26T17:23:33.658Z,8.13
2019-03-26T17:26:01.377Z,9.00
2019-03-26T17:28:29.105Z,13.73
2019-03-26T17:30:56.838Z,16.40
2019-03-26T17:33:24.588Z,11.07
2019-03-26T17:35:52.234Z,21.73
2019-03-26T17:38:20.000Z,22.47
2019-03-26T17:40:47.791Z,12.53
2019-03-26T17:43:16.143Z,11.00
2019-03-26T17:45:44.255Z,13.57
2019-03-26T17:51:26.565Z,13.67
2019-03-26T17:53:54.639Z,15.23
2019-03-26T17:56:22.385Z,16.20
2019-03-26T17:58:50.242Z,12.70
2019-03-26T18:04:40.987Z,11.37
2019-03-26T18:07:08.741Z,15.40
2019-03-26T18:09:36.490Z,10.20
2019-03-26T18:12:04.613Z,14.80
2019-03-26T18:14:32.340Z,11.10
2019-03-26T18:17:00.118Z,16.97
2019-03-26T18:19:28.165Z,14.73
2019-03-26T18:21:55.953Z,19.43
2019-03-26T18:24:23.739Z,20.07
2019-03-26T18:26:51.552Z,15.70
2019-03-26T18:29:19.181Z,15.17
2019-03-26T18:32:27.494Z,12.10
2019-03-26T18:35:14.499Z,11.80
2019-03-26T18:37:42.346Z,12.03
2019-03-26T18:40:10.710Z,16.50
2019-03-26T18:42:43.829Z,12.20
2019-03-26T18:45:09.507Z,25.27
2019-03-26T18:47:43.808Z,13.93
2019-03-26T18:50:11.798Z,10.23
2019-03-26T18:52:39.576Z,8.27
2019-03-26T18:55:07.632Z,12.10
2019-03-26T18:57:35.424Z,12.97
2019-03-26T19:00:04.455Z,24.90
2019-03-26T19:02:32.289Z,13.43
2019-03-26T19:05:00.368Z,14.10
2019-03-26T19:07:28.041Z,11.50
2019-03-26T19:09:55.796Z,16.47
2019-03-26T19:12:23.542Z,20.73
2019-03-26T19:14:51.310Z,17.50
2019-03-26T19:17:19.030Z,17.90
2019-03-26T19:19:46.768Z,20.13
2019-03-26T19:22:14.498Z,16.37
2019-03-26T19:24:42.248Z,20.80
2019-03-26T19:27:10.340Z,19.27
2019-03-26T19:29:38.097Z,16.70
2019-03-26T19:32:05.816Z,20.97
2019-03-26T19:34:33.589Z,21.73
2019-03-26T19:37:01.220Z,16.93
2019-03-26T19:39:29.072Z,19.50
2019-03-26T19:41:56.890Z,17.43
2019-03-26T19:44:24.597Z,19.03
2019-03-26T19:46:52.357Z,30.80
2019-03-26T19:49:20.400Z,19.57
2019-03-26T19:51:48.129Z,24.50
2019-03-26T19:54:15.859Z,28.13
2019-03-26T19:56:43.584Z,19.00
2019-03-26T19:59:11.441Z,20.90
2019-03-26T20:01:39.176Z,16.00
2019-03-26T20:04:06.934Z,30.13
2019-03-26T20:06:34.657Z,18.13
2019-03-26T20:09:03.811Z,24.13
2019-03-26T20:11:31.648Z,19.90
2019-03-26T20:14:00.200Z,20.80
2019-03-26T20:16:41.113Z,25.40
2019-03-26T20:18:57.559Z,18.60
2019-03-26T20:21:25.547Z,22.33
2019-03-26T20:23:53.322Z,25.13
2019-03-26T20:26:21.073Z,22.33
2019-03-26T20:28:48.748Z,24.47
2019-03-26T20:31:16.807Z,25.60
2019-03-26T20:33:44.697Z,23.07
2019-03-26T20:36:12.396Z,20.47
2019-03-26T20:38:40.657Z,29.57
2019-03-26T20:41:08.717Z,28.63
2019-03-26T20:43:37.750Z,22.10
2019-03-26T20:46:05.530Z,21.83
2019-03-26T20:48:33.334Z,25.20
2019-03-26T20:51:01.520Z,21.17
2019-03-26T20:53:30.009Z,26.40
2019-03-26T20:55:58.514Z,34.37
2019-03-26T20:58:26.259Z,27.03
2019-03-26T21:00:54.033Z,28.07
2019-03-26T21:03:22.072Z,25.03
2019-03-26T21:05:49.809Z,17.73
2019-03-26T21:08:18.564Z,29.23
2019-03-26T21:10:46.376Z,24.17
2019-03-26T21:13:14.648Z,22.63
2019-03-26T21:15:57.007Z,17.83
2019-03-26T21:18:21.171Z,23.27
2019-03-26T21:20:50.065Z,18.20
2019-03-26T21:23:20.491Z,19.03
2019-03-26T21:25:48.256Z,18.80
2019-03-26T21:28:16.105Z,18.97
2019-03-26T21:30:43.888Z,22.07
2019-03-26T21:33:12.069Z,24.30
2019-03-26T21:35:39.941Z,20.50
2019-03-26T21:38:07.687Z,20.80
2019-03-26T21:40:35.466Z,16.33
2019-03-26T21:43:03.570Z,18.93
2019-03-26T21:45:36.186Z,20.63
2019-03-26T21:48:04.589Z,24.80
2019-03-26T21:50:32.367Z,23.87
2019-03-26T21:53:01.061Z,24.60
2019-03-26T21:55:29.016Z,19.63
2019-03-26T21:57:56.697Z,24.83
2019-03-26T22:00:24.869Z,22.90
2019-03-26T22:02:52.932Z,23.03
2019-03-26T22:05:20.721Z,30.10
2019-03-26T22:07:48.526Z,24.97
2019-03-26T22:10:18.477Z,21.10
2019-03-26T22:12:46.254Z,21.23
2019-03-26T22:15:14.195Z,24.67
2019-03-26T22:17:41.794Z,34.53
2019-03-26T22:20:10.101Z,27.73
2019-03-26T22:22:37.865Z,27.10
2019-03-26T22:25:06.504Z,28.53
2019-03-26T22:27:34.620Z,23.83
2019-03-26T22:30:02.802Z,23.67
2019-03-26T22:32:30.792Z,34.67
2019-03-26T22:34:58.532Z,23.77
2019-03-26T22:37:26.332Z,29.17
2019-03-26T22:39:54.118Z,31.10
2019-03-26T22:42:22.280Z,23.90
2019-03-26T22:44:50.146Z,28.40
2019-03-26T22:47:17.854Z,36.37
2019-03-26T22:49:45.459Z,20.63
2019-03-26T22:52:13.402Z,24.47
2019-03-26T22:54:41.175Z,20.70
2019-03-26T22:57:08.928Z,28.57
2019-03-26T22:59:36.679Z,24.13
2019-03-26T23:02:04.652Z,28.60
2019-03-26T23:04:32.371Z,24.70
2019-03-26T23:07:00.886Z,27.57
2019-03-26T23:09:28.621Z,21.43
2019-03-26T23:11:56.387Z,23.10
2019-03-26T23:14:24.243Z,26.63
2019-03-26T23:16:51.963Z,26.30
2019-03-26T23:19:20.159Z,19.03
2019-03-26T23:21:47.970Z,24.53
2019-03-26T23:24:15.757Z,29.73
2019-03-26T23:26:43.450Z,21.80
2019-03-26T23:29:11.236Z,23.40
2019-03-26T23:31:39.281Z,22.57
2019-03-26T23:34:06.979Z,22.30
2019-03-26T23:36:35.118Z,20.90
2019-03-26T23:39:04.140Z,23.57
2019-03-26T23:41:33.657Z,22.33
2019-03-26T23:44:01.434Z,21.53
2019-03-26T23:46:29.228Z,20.03
2019-03-26T23:48:57.194Z,23.10
2019-03-26T23:51:25.041Z,23.27
2019-03-26T23:53:52.887Z,22.67
2019-03-26T23:56:20.654Z,22.60
2019-03-26T23:58:49.298Z,18.80
